Guajillo, Texas
Current Conditions -  °F | °C
As of 6:53 PM on Tuesday 21 Oct 2014 (Local Time) from KALI Reporting Station
Clear Clear  
Wind Chill: 78°   Ceiling: Unl
Heat Index: 80°   Visibility: 10mi
Dew Point: 66°   Wind: 13mph
Humidity: 66%   Direction: 90°E
Pressure: 29.94"   Gusts: 24mph
Location:  27.6821°N, 98.1034°W
Report Text: KALI 212353Z AUTO 09011G21KT 10SM CLR 26/19 A2994 RMK AO2 SLP136 T02560189 10306 20256 53006
Loading
Personal Weather Stations






























Interactive Weather Map
Tropical Storm Tracking
New forecast layout! Learn more

10-Day Weather Forecast

Advertisements
Track Severe Weather on mobile